Latest Weather Observations for Troughton Island

IDD60801

Issued at 9:21 am CST Wednesday 25 May 2022 (issued every 10 minutes, with the page automatically refreshed every 10 minutes)

About weather observations | Map of weather stations | Latest weather observations for NT | Other Formats
Station Details ID: 001007 Name: TROUGHTON ISLAND Lat: -13.75 Lon: 126.15 Height: 6.0 m
Data from the previous 72 hours. | See also: Recent months at Troughton Island
Date/Time
CST
Temp
°C
App
Temp
°C
Dew
Point
°C
Rel
Hum
%
Delta-T
°C
Wind Press
QNH
hPa
Press
MSL
hPa
Rain since
9am
mm
Dir  Spd
km/h
Gust
km/h
Spd
kts
Gust
kts
25/09:00am 29.4 30.3 20.8 60 5.7 S 17 20 9 11 1013.3 1013.2 0.0
25/08:30am 28.8 29.5 20.5 61 5.5 S 17 20 9 11 1013.2 1013.1 0.0
25/08:00am 28.2 28.7 20.0 61 5.4 S 17 20 9 11 1013.0 1012.9 0.0
25/07:30am 27.9 27.6 18.3 56 6.1 S 17 19 9 10 1012.7 1012.6 0.0
25/07:00am 27.8 28.4 18.5 57 5.9 SSW 13 17 7 9 1012.5 1012.4 0.0
25/06:30am 26.9 28.6 19.3 63 4.9 SSW 9 11 5 6 1012.5 1012.4 0.0
25/06:00am 27.1 28.4 19.2 62 5.1 SSW 11 15 6 8 1012.5 1012.4 0.0
25/05:30am 27.1 28.2 19.7 64 4.8 S 13 15 7 8 1012.6 1012.5 0.0
25/05:00am 26.3 28.0 19.4 66 4.5 S 9 11 5 6 1012.6 1012.5 0.0
25/04:30am 26.4 29.7 19.0 63 4.7 CALM 0 0 0 0 1012.6 1012.5 0.0
25/04:00am 26.7 29.9 18.8 62 5.1 CALM 0 0 0 0 1012.6 1012.5 0.0
25/03:30am 26.3 29.3 18.4 61 5.0 CALM 0 0 0 0 1012.8 1012.7 0.0
25/03:00am 26.3 29.2 18.2 61 5.1 CALM 0 0 0 0 1013.1 1013.0 0.0
25/02:30am 27.2 30.2 18.5 59 5.6 CALM 0 0 0 0 1013.5 1013.4 0.0
25/02:00am 26.6 29.4 17.9 59 5.5 CALM 0 0 0 0 1014.0 1013.9 0.0
25/01:30am 27.3 30.1 18.0 56 5.9 CALM 0 0 0 0 1014.2 1014.1 0.0
25/01:00am 27.6 30.3 17.7 54 6.3 CALM 0 0 0 0 1014.5 1014.4 0.0
25/12:30am 26.9 29.0 17.1 55 6.1 N 2 6 1 3 1014.8 1014.7 0.0
25/12:00am 28.3 29.7 17.8 53 6.7 N 7 9 4 5 1014.8 1014.7 0.0
 
Date/Time
CST
Temp
°C
App
Temp
°C
Dew
Point
°C
Rel
Hum
%
Delta-T
°C
Wind Press
QNH
hPa
Press
MSL
hPa
Rain since
9am
mm
Dir  Spd
km/h
Gust
km/h
Spd
kts
Gust
kts
24/11:30pm 27.9 29.4 17.7 53 6.4 NNE 6 9 3 5 1014.9 1014.8 0.0
24/11:00pm 28.0 28.9 17.5 52 6.6 NNE 9 11 5 6 1015.1 1015.0 0.0
24/10:30pm 27.9 29.6 18.6 57 6.0 NNE 7 9 4 5 1015.1 1015.0 0.0
24/10:00pm 28.1 29.0 17.6 53 6.6 NNE 9 11 5 6 1014.9 1014.8 0.0
24/09:30pm 29.0 30.0 17.8 50 7.1 NNE 9 11 5 6 1014.9 1014.8 0.0
24/09:00pm 28.4 30.8 17.9 53 6.7 NNW 2 6 1 3 1014.5 1014.4 0.0
24/08:30pm 28.0 29.4 17.8 54 6.5 NW 7 9 4 5 1013.9 1013.8 0.0
24/08:00pm 28.1 28.8 17.0 51 6.9 NW 9 11 5 6 1013.5 1013.4 0.0
24/07:30pm 28.6 29.1 18.4 54 6.5 NW 13 15 7 8 1013.0 1012.9 0.0
24/07:00pm 28.6 28.6 17.2 50 7.2 NNW 13 15 7 8 1012.7 1012.6 0.0
24/06:30pm 29.2 29.2 17.1 48 7.6 NNW 13 15 7 8 1012.5 1012.4 0.0
24/06:00pm 30.4 30.9 17.5 46 8.2 NW 11 13 6 7 1012.0 1011.9 0.0
24/05:30pm 31.5 31.8 15.9 39 9.7 WNW 9 13 5 7 1011.7 1011.6 0.0
24/05:00pm 31.4 31.5 16.6 41 9.3 W 11 13 6 7 1011.6 1011.5 0.0
24/04:30pm 31.8 31.0 14.0 34 10.8 WSW 11 13 6 7 1011.5 1011.4 0.0
24/04:00pm 32.0 30.9 13.2 31 11.3 WSW 11 13 6 7 1011.5 1011.4 0.0
24/03:30pm 31.2 30.7 13.9 35 10.5 WSW 9 13 5 7 1011.7 1011.6 0.0
24/03:00pm 31.8 32.0 15.7 37 10.0 WSW 9 11 5 6 1011.6 1011.5 0.0
24/02:30pm 31.6 32.2 16.7 40 9.4 WSW 9 11 5 6 1011.8 1011.7 0.0
24/02:00pm 32.3 33.2 16.2 38 10.1 SSE 6 11 3 6 1012.1 1012.0 0.0
24/01:30pm 31.7 32.2 15.6 37 10.0 E 7 11 4 6 1012.2 1012.1 0.0
24/01:00pm 31.6 31.7 15.5 37 10.0 ESE 9 11 5 6 1012.7 1012.6 0.0
24/12:30pm 30.6 30.6 16.2 41 9.0 SSE 11 17 6 9 1013.2 1013.1 0.0
24/12:00pm 30.2 30.2 16.2 42 8.7 SE 11 17 6 9 1013.4 1013.3 0.0
24/11:30am 31.1 31.4 17.0 42 8.9 SE 11 15 6 8 1013.6 1013.5 0.0
24/11:00am 30.7 30.5 16.7 43 8.8 SE 13 15 7 8 1013.8 1013.7 0.0
24/10:30am 30.9 30.6 16.5 42 9.0 SE 13 17 7 9 1013.9 1013.8 0.0
24/10:00am 30.1 29.2 15.8 42 8.9 SSE 15 19 8 10 1013.8 1013.7 0.0
24/09:30am 29.3 28.5 17.2 48 7.6 S 17 20 9 11 1013.6 1013.5 0.0
24/09:00am 29.3 28.4 17.8 50 7.3 SSE 19 22 10 12 1013.5 1013.4 0.0
24/08:30am 28.1 28.8 20.4 63 5.1 SSE 17 20 9 11 1013.2 1013.1 0.0
24/08:00am 27.7 29.1 21.0 67 4.4 SSE 15 19 8 10 1013.0 1012.9 0.0
24/07:30am 26.9 28.4 21.2 71 3.8 SSE 15 15 8 8 1012.7 1012.6 0.0
24/07:00am 26.5 28.7 21.9 76 3.1 SSE 13 17 7 9 1012.2 1012.1 0.0
24/06:30am 26.3 28.3 22.2 78 2.8 SE 15 17 8 9 1011.8 1011.7 0.0
24/06:00am 26.6 28.9 22.7 79 2.6 SE 15 19 8 10 1011.6 1011.5 0.0
24/05:30am 26.6 28.9 22.7 79 2.6 SE 15 19 8 10 1011.6 1011.5 0.0
24/05:00am 27.2 29.5 22.8 77 3.0 ESE 15 19 8 10 1011.6 1011.5 0.0
24/04:30am 28.2 29.8 20.7 63 5.0 ENE 13 17 7 9 1011.6 1011.5 0.0
24/04:00am 28.4 28.8 19.9 60 5.6 E 17 19 9 10 1011.6 1011.5 0.0
24/03:30am 28.4 29.2 20.7 63 5.1 ENE 17 20 9 11 1011.7 1011.6 0.0
24/03:00am 28.5 28.9 21.0 64 5.0 E 20 22 11 12 1011.8 1011.7 0.0
24/02:30am 28.4 28.4 20.2 61 5.4 ENE 20 26 11 14 1011.9 1011.8 0.0
24/02:00am 28.4 28.8 21.7 67 4.5 ENE 22 28 12 15 1011.9 1011.8 0.0
24/01:30am 28.6 28.8 21.4 65 4.8 ENE 22 28 12 15 1012.2 1012.1 0.0
24/01:00am 28.5 29.1 21.3 65 4.8 E 20 26 11 14 1012.2 1012.1 0.0
24/12:30am 28.7 28.3 20.2 60 5.6 E 22 28 12 15 1012.5 1012.4 0.0
24/12:00am 28.8 28.1 20.3 60 5.6 E 24 30 13 16 1012.6 1012.5 0.0
 
Date/Time
CST
Temp
°C
App
Temp
°C
Dew
Point
°C
Rel
Hum
%
Delta-T
°C
Wind Press
QNH
hPa
Press
MSL
hPa
Rain since
9am
mm
Dir  Spd
km/h
Gust
km/h
Spd
kts
Gust
kts
23/11:30pm 29.0 27.7 19.9 58 6.0 E 26 30 14 16 1012.8 1012.7 0.0
23/11:00pm 29.1 27.2 19.4 55 6.3 ENE 28 32 15 17 1012.8 1012.7 0.0
23/10:30pm 29.2 27.0 18.6 52 6.8 ENE 28 35 15 19 1012.9 1012.8 0.0
23/10:00pm 29.4 26.6 18.2 51 7.2 E 30 35 16 19 1012.8 1012.7 0.0
23/09:30pm 29.3 26.7 17.8 50 7.3 E 28 35 15 19 1012.8 1012.7 0.0
23/09:00pm 29.5 26.1 17.7 49 7.5 E 32 37 17 20 1012.4 1012.3 0.0
23/08:30pm 29.4 26.3 18.5 52 7.0 E 32 39 17 21 1012.2 1012.1 0.0
23/08:00pm 29.5 26.2 18.3 51 7.2 ENE 33 37 18 20 1012.0 1011.9 0.0
23/07:30pm 29.6 25.9 17.4 47 7.7 ENE 33 39 18 21 1011.6 1011.5 0.0
23/07:00pm 29.5 25.9 17.3 47 7.7 ENE 32 37 17 20 1011.1 1011.0 0.0
23/06:30pm 29.6 27.0 18.7 52 7.0 E 30 37 16 20 1010.7 1010.6 0.0
23/06:00pm 30.0 27.2 19.1 52 7.1 ENE 32 35 17 19 1010.4 1010.3 0.0
23/05:30pm 30.3 27.4 19.3 51 7.2 E 33 37 18 20 1010.0 1009.9 0.0
23/05:00pm 30.6 27.9 19.3 51 7.4 ENE 32 39 17 21 1010.0 1009.9 0.0
23/04:30pm 31.4 29.7 19.7 49 7.7 E 28 33 15 18 1010.0 1009.9 0.0
23/04:00pm 32.0 30.5 16.7 40 9.7 E 20 24 11 13 1009.9 1009.8 0.0
23/03:30pm 32.1 31.1 15.6 37 10.3 E 15 20 8 11 1010.2 1010.1 0.0
23/03:00pm 32.7 31.2 14.3 32 11.2 E 15 19 8 10 1010.4 1010.3 0.0
23/02:30pm 33.3 30.6 11.8 27 12.7 ESE 17 22 9 12 1010.7 1010.6 0.0
23/02:00pm 33.1 30.3 13.2 30 12.0 ESE 20 26 11 14 1011.1 1011.0 0.0
23/01:30pm 32.5 30.0 14.1 32 11.2 ESE 20 26 11 14 1011.5 1011.4 0.0
23/01:00pm 32.0 29.8 15.9 38 10.1 ESE 22 28 12 15 1012.0 1011.9 0.0
23/12:30pm 32.0 29.1 15.1 36 10.4 ESE 24 32 13 17 1012.4 1012.3 0.0
23/12:00pm 32.1 28.2 14.3 34 10.9 ESE 28 35 15 19 1012.7 1012.6 0.0
23/11:30am 32.1 28.7 13.8 33 11.1 SE 24 30 13 16 1013.0 1012.9 0.0
23/11:00am 31.4 28.5 15.0 37 10.1 SE 24 30 13 16 1013.2 1013.1 0.0
23/10:30am 30.6 27.7 16.2 41 9.0 SE 26 33 14 18 1013.5 1013.4 0.0
23/10:00am 29.9 27.7 17.0 45 8.1 SE 24 30 13 16 1013.5 1013.4 0.0
23/09:30am 29.3 28.0 18.1 51 7.2 SE 22 28 12 15 1013.4 1013.3 0.0
23/09:00am 28.6 26.9 18.1 53 6.7 SSE 24 28 13 15 1013.3 1013.2 0.0
23/08:30am 27.8 27.6 19.3 60 5.5 SSE 19 22 10 12 1013.1 1013.0 0.0
23/08:00am 27.1 26.5 18.4 59 5.5 SE 19 24 10 13 1012.9 1012.8 0.0
23/07:30am 26.4 26.2 19.3 65 4.6 SSE 19 24 10 13 1012.5 1012.4 0.0
23/07:00am 26.5 26.2 19.1 64 4.8 SE 19 24 10 13 1012.2 1012.1 0.0
23/06:30am 26.7 27.2 20.8 70 3.9 SE 19 20 10 11 1011.8 1011.7 0.0
23/06:00am 26.8 27.8 21.8 74 3.3 SE 19 20 10 11 1011.4 1011.3 0.0
23/05:30am 26.8 28.7 22.0 75 3.2 ESE 15 17 8 9 1011.3 1011.2 0.0
23/05:00am 27.3 28.6 21.6 71 3.8 SE 17 22 9 12 1011.2 1011.1 0.0
23/04:30am 28.4 28.3 20.7 63 5.1 ESE 22 26 12 14 1011.2 1011.1 0.0
23/04:00am 28.3 28.3 19.8 60 5.5 E 19 20 10 11 1011.1 1011.0 0.0
23/03:30am 29.1 28.3 18.5 52 6.8 E 20 24 11 13 1011.1 1011.0 0.0
23/03:00am 29.0 28.7 19.6 57 6.1 E 20 24 11 13 1011.2 1011.1 0.0
23/02:30am 29.2 28.0 18.3 51 7.0 E 22 26 12 14 1011.3 1011.2 0.0
23/02:00am 29.2 27.5 18.0 50 7.1 E 24 30 13 16 1011.2 1011.1 0.0
23/01:30am 29.1 27.6 18.5 52 6.8 ENE 24 30 13 16 1011.3 1011.2 0.0
23/01:00am 29.1 27.4 19.7 57 6.1 ENE 28 32 15 17 1011.5 1011.4 0.0
23/12:30am 29.3 26.9 19.0 53 6.7 E 30 35 16 19 1011.5 1011.4 0.0
23/12:00am 29.1 26.0 17.6 50 7.3 ENE 30 35 16 19 1011.4 1011.3 0.0
 
Date/Time
CST
Temp
°C
App
Temp
°C
Dew
Point
°C
Rel
Hum
%
Delta-T
°C
Wind Press
QNH
hPa
Press
MSL
hPa
Rain since
9am
mm
Dir  Spd
km/h
Gust
km/h
Spd
kts
Gust
kts
22/11:30pm 29.1 25.4 17.0 48 7.6 ENE 32 39 17 21 1011.6 1011.5 0.0
22/11:00pm 29.2 25.7 17.4 49 7.5 ENE 32 39 17 21 1011.8 1011.7 0.0
22/10:30pm 29.1 25.9 18.2 51 7.0 ENE 32 39 17 21 1011.8 1011.7 0.0
22/10:00pm 29.3 25.8 17.5 49 7.5 ENE 32 39 17 21 1011.9 1011.8 0.0
22/09:30pm 29.2 25.6 17.7 50 7.3 ENE 33 41 18 22 1011.8 1011.7 0.0
22/09:00pm 29.2 25.5 17.4 49 7.5 ENE 33 41 18 22 1011.6 1011.5 0.0
22/08:30pm 29.2 25.5 18.3 51 7.0 ENE 35 43 19 23 1011.3 1011.2 0.0
22/08:00pm 29.4 24.2 15.5 43 8.5 ENE 37 44 20 24 1010.9 1010.8 0.0
22/07:30pm 29.5 25.0 17.3 47 7.7 ENE 37 44 20 24 1010.5 1010.4 0.0
22/07:00pm 29.4 25.3 18.2 51 7.2 ENE 37 44 20 24 1010.2 1010.1 0.0
22/06:30pm 29.6 25.3 18.7 52 7.0 ENE 39 46 21 25 1010.0 1009.9 0.0
22/06:00pm 30.0 26.4 19.4 53 6.9 ENE 37 44 20 24 1009.7 1009.6 0.0
22/05:30pm 30.3 26.9 19.0 50 7.3 ENE 35 43 19 23 1009.5 1009.4 0.0
22/05:00pm 30.7 27.5 19.4 51 7.4 ENE 35 41 19 22 1009.3 1009.2 0.0
22/04:30pm 31.5 28.9 19.5 49 7.9 ENE 32 39 17 21 1009.2 1009.1 0.0
22/04:00pm 31.5 28.3 18.1 44 8.6 E 32 39 17 21 1009.3 1009.2 0.0
22/03:30pm 31.7 28.3 17.6 43 9.0 E 32 39 17 21 1009.4 1009.3 0.0
22/03:00pm 31.6 28.2 18.9 47 8.3 E 35 41 19 22 1009.6 1009.5 0.0
22/02:30pm 31.7 28.6 19.7 49 7.9 E 35 43 19 23 1009.9 1009.8 0.0
22/02:00pm 31.7 28.4 18.3 45 8.7 E 33 43 18 23 1010.5 1010.4 0.0
22/01:30pm 33.5 28.9 15.0 32 11.5 E 33 39 18 21 1011.0 1010.9 0.0
22/01:00pm 32.9 28.6 15.4 35 10.9 ESE 32 39 17 21 1011.5 1011.4 0.0
22/12:30pm 32.0 27.9 15.9 38 10.1 ESE 32 39 17 21 1012.1 1012.0 0.0
22/12:00pm 31.6 27.2 16.7 40 9.4 ESE 35 43 19 23 1012.6 1012.5 0.0
22/11:30am 31.7 27.7 16.8 40 9.4 ESE 33 43 18 23 1013.1 1013.0 0.0
22/11:00am 31.2 26.5 14.8 37 10.0 ESE 33 41 18 22 1013.3 1013.2 0.0

Other formats

Comma delimited format used in spreadsheet applications
http://www.bom.gov.au/fwo/IDD60801/IDD60801.94102.axf

JavaScript Object Notation format (JSON) in row-major order
http://www.bom.gov.au/fwo/IDD60801/IDD60801.94102.json

Data quality

Most of these data are generated automatically and are frequently updated. Quality checks on data are not normally performed. It is possible for incorrect values to appear. Refer to information at About Latest Weather Observations and please check the disclaimer before using these data.